Time;durP1;ratioP1;P1;durP2;ratioP2;P2;SDS_P1;SDS_P2;PMS_P1;PMS_P2;Temp;Humidity;BMP_temperature;BMP_pressure;BME280_temperature;BME280_humidity;BME280_pressure;Samples;Min_cycle;Max_cycle;Signal;HPM_P1;HPM_P2
2024/01/31 00:00:09;;;;;;;14.77;8.30;;;;;;;-2.51;77.55;98828.50;5070327;28;20757;-61
2024/01/31 00:02:37;;;;;;;13.83;7.43;;;;;;;-2.84;78.50;98824.81;5088263;28;20210;-59
2024/01/31 00:05:04;;;;;;;11.77;7.60;;;;;;;-3.00;78.97;98827.63;5088433;28;20223;-60
2024/01/31 00:07:32;;;;;;;12.30;7.43;;;;;;;-3.14;79.72;98809.41;5088170;28;20684;-61
2024/01/31 00:09:59;;;;;;;14.77;8.40;;;;;;;-3.00;79.38;98822.53;5088373;28;20279;-60
2024/01/31 00:12:27;;;;;;;12.63;8.13;;;;;;;-3.21;79.91;98799.00;5070598;28;20232;-61
2024/01/31 00:14:55;;;;;;;11.10;6.87;;;;;;;-3.26;80.37;98823.28;5087458;28;20273;-61
2024/01/31 00:17:22;;;;;;;14.40;8.07;;;;;;;-3.19;79.86;98837.91;5087959;28;20202;-62
2024/01/31 00:19:49;;;;;;;12.80;6.97;;;;;;;-3.33;80.08;98830.66;5069319;28;20574;-60
2024/01/31 00:22:16;;;;;;;13.53;8.27;;;;;;;-3.41;80.39;98832.06;5087642;28;20194;-61
2024/01/31 00:24:43;;;;;;;12.43;7.67;;;;;;;-3.38;80.56;98831.31;5087354;28;20237;-62
2024/01/31 00:27:10;;;;;;;20.90;11.87;;;;;;;-3.30;80.14;98830.75;5087586;28;20202;-59
2024/01/31 00:29:37;;;;;;;11.93;6.63;;;;;;;-3.34;80.07;98838.22;5087875;28;20222;-59
2024/01/31 00:32:05;;;;;;;14.10;8.43;;;;;;;-3.31;80.27;98836.66;5087066;28;20228;-59
2024/01/31 00:34:32;;;;;;;13.80;7.87;;;;;;;-3.17;79.92;98833.78;5069589;28;20541;-60
2024/01/31 00:37:00;;;;;;;13.67;7.90;;;;;;;-3.11;79.87;98826.38;5087308;28;20199;-59
2024/01/31 00:39:31;;;;;;;12.20;7.40;;;;;;;-3.01;79.60;98828.44;5087313;28;20289;-59
2024/01/31 00:41:59;;;;;;;12.60;7.63;;;;;;;-2.94;79.20;98821.09;5087322;28;20260;-59
2024/01/31 00:44:26;;;;;;;13.63;8.10;;;;;;;-2.76;78.34;98831.88;5087611;28;20195;-61
2024/01/31 00:46:53;;;;;;;22.97;8.63;;;;;;;-2.81;78.22;98817.31;5087676;28;20721;-59
2024/01/31 00:49:21;;;;;;;13.90;8.73;;;;;;;-2.67;78.55;98818.66;5087249;28;20195;-59
2024/01/31 00:51:52;;;;;;;15.83;8.83;;;;;;;-2.76;78.24;98798.91;5087512;28;20250;-60
2024/01/31 00:54:20;;;;;;;20.80;9.90;;;;;;;-2.43;76.87;98816.09;5087150;28;20332;-60
2024/01/31 00:56:47;;;;;;;17.07;9.70;;;;;;;-2.61;77.36;98791.84;5086983;28;20286;-61
2024/01/31 00:59:14;;;;;;;20.03;9.87;;;;;;;-2.35;76.87;98825.69;5086823;28;20234;-60
2024/01/31 01:01:41;;;;;;;16.27;9.60;;;;;;;-2.35;77.29;98820.63;5086939;28;20192;-60
2024/01/31 01:04:08;;;;;;;19.70;10.10;;;;;;;-2.30;76.91;98819.06;5087115;28;20223;-59
2024/01/31 01:06:35;;;;;;;16.30;9.23;;;;;;;-2.30;76.91;98824.16;5086786;28;20200;-60
2024/01/31 01:09:03;;;;;;;14.57;9.27;;;;;;;-2.30;77.11;98819.06;5087181;28;20727;-59
2024/01/31 01:11:30;;;;;;;18.50;9.73;;;;;;;-2.38;76.28;98810.34;5086660;28;20243;-59
2024/01/31 01:13:57;;;;;;;15.03;9.20;;;;;;;-2.42;76.68;98811.06;5086802;28;20228;-59
2024/01/31 01:16:24;;;;;;;16.90;10.07;;;;;;;-2.29;75.88;98808.13;5087004;28;20216;-59
2024/01/31 01:18:51;;;;;;;17.50;9.67;;;;;;;-2.62;76.87;98802.78;5086724;28;20268;-60
2024/01/31 01:21:18;;;;;;;17.63;9.90;;;;;;;-2.47;77.52;98799.06;5086809;28;20240;-59
2024/01/31 01:23:45;;;;;;;15.50;9.60;;;;;;;-2.53;77.23;98808.16;5086505;28;20228;-59
2024/01/31 01:26:12;;;;;;;19.63;10.60;;;;;;;-2.70;77.48;98803.34;5087015;28;20200;-60
2024/01/31 01:28:39;;;;;;;16.17;9.67;;;;;;;-2.77;77.66;98804.81;5085529;28;20179;-59
2024/01/31 01:31:07;;;;;;;21.37;11.47;;;;;;;-2.73;77.75;98808.31;5086676;28;20628;-59
2024/01/31 01:33:35;;;;;;;22.83;12.47;;;;;;;-2.78;77.98;98803.06;5086509;28;20793;-60
2024/01/31 01:36:03;;;;;;;21.63;11.83;;;;;;;-2.65;77.20;98796.75;5086647;28;20197;-58
2024/01/31 01:38:31;;;;;;;19.83;11.97;;;;;;;-2.89;77.24;98785.78;5086643;28;20232;-58
2024/01/31 01:40:58;;;;;;;21.60;11.93;;;;;;;-2.94;77.59;98800.81;5086663;28;20203;-58
2024/01/31 01:43:25;;;;;;;16.23;10.60;;;;;;;-2.94;77.94;98805.03;5087169;28;20198;-59
2024/01/31 01:46:03;;;;;;;17.87;10.53;;;;;;;-2.96;77.44;98796.50;5086005;28;20620;-59
2024/01/31 01:48:30;;;;;;;19.63;11.17;;;;;;;-3.08;76.95;98776.69;5086264;28;20682;-59
2024/01/31 01:50:57;;;;;;;20.00;10.63;;;;;;;-3.10;78.50;98797.69;5086445;28;20211;-59
2024/01/31 01:53:24;;;;;;;16.40;9.27;;;;;;;-3.00;78.30;98792.13;5086186;28;20258;-59
2024/01/31 01:55:51;;;;;;;18.07;9.80;;;;;;;-3.04;77.81;98793.72;5086207;28;20252;-59
2024/01/31 01:58:19;;;;;;;17.77;9.83;;;;;;;-3.21;79.11;98774.50;5086082;28;20190;-59
2024/01/31 02:00:47;;;;;;;13.93;9.07;;;;;;;-3.05;77.70;98791.13;5086328;28;20222;-58
2024/01/31 02:03:17;;;;;;;16.37;9.37;;;;;;;-3.11;77.74;98796.00;5067664;28;20279;-58
2024/01/31 02:05:45;;;;;;;16.07;9.20;;;;;;;-3.26;78.23;98785.31;5086197;28;20194;-58
2024/01/31 02:08:13;;;;;;;15.90;8.50;;;;;;;-3.57;79.39;98784.19;5051131;28;20596;-58
2024/01/31 02:10:40;;;;;;;16.60;8.60;;;;;;;-3.79;79.60;98778.28;5085504;28;20216;-58
2024/01/31 02:13:07;;;;;;;16.60;8.90;;;;;;;-3.83;80.61;98774.75;5067769;28;20232;-59
2024/01/31 02:15:35;;;;;;;17.73;8.97;;;;;;;-3.74;81.09;98780.16;5085516;28;20212;-59
2024/01/31 02:18:26;;;;;;;14.27;8.17;;;;;;;-3.86;81.60;98762.00;5070884;28;20295;-60
2024/01/31 02:20:54;;;;;;;16.40;8.90;;;;;;;-4.02;82.01;98766.41;5085757;28;20189;-58
2024/01/31 02:23:22;;;;;;;15.13;8.30;;;;;;;-4.14;83.12;98756.66;5085522;28;20233;-61
2024/01/31 02:25:49;;;;;;;13.40;7.80;;;;;;;-4.04;83.87;98768.03;5085433;28;20693;-60
2024/01/31 02:28:16;;;;;;;15.20;8.07;;;;;;;-3.97;83.75;98762.38;5067482;28;20756;-60
2024/01/31 02:30:44;;;;;;;15.67;9.73;;;;;;;-3.96;83.12;98751.47;5067855;28;20196;-60
2024/01/31 02:33:11;;;;;;;16.10;8.13;;;;;;;-4.04;83.56;98760.44;5067160;28;20212;-59
2024/01/31 02:35:38;;;;;;;13.80;7.20;;;;;;;-4.14;83.75;98752.47;5086035;28;20196;-61
2024/01/31 02:38:05;;;;;;;16.90;8.67;;;;;;;-4.19;84.19;98748.94;5086121;28;20196;-60
2024/01/31 02:40:32;;;;;;;12.60;7.70;;;;;;;-4.12;84.74;98752.53;5092389;28;20220;-59
2024/01/31 02:43:00;;;;;;;12.27;7.33;;;;;;;-4.08;84.08;98761.97;5092259;28;20206;-59
2024/01/31 02:45:27;;;;;;;14.43;7.80;;;;;;;-4.06;83.91;98755.31;5092559;28;20574;-60
2024/01/31 02:47:55;;;;;;;14.07;7.60;;;;;;;-3.92;83.28;98756.72;5092621;28;20685;-58
2024/01/31 02:50:22;;;;;;;13.00;7.83;;;;;;;-3.96;83.46;98757.41;5092093;28;20300;-60
2024/01/31 02:52:49;;;;;;;11.63;7.50;;;;;;;-4.07;82.98;98753.59;5074384;28;20228;-58
2024/01/31 02:55:16;;;;;;;13.23;7.37;;;;;;;-3.95;82.57;98758.22;5092236;28;20196;-59
2024/01/31 02:57:44;;;;;;;14.23;7.67;;;;;;;-3.87;83.19;98754.31;5092303;28;20199;-59
2024/01/31 03:00:12;;;;;;;13.83;7.87;;;;;;;-4.08;82.48;98720.66;5092328;28;20334;-59
2024/01/31 03:02:42;;;;;;;13.37;7.77;;;;;;;-3.98;82.17;98732.84;5092280;28;20599;-59
2024/01/31 03:05:11;;;;;;;12.77;8.00;;;;;;;-3.73;82.35;98755.72;5092438;28;20782;-61
2024/01/31 03:07:39;;;;;;;14.77;8.83;;;;;;;-3.62;80.89;98759.50;5073724;28;20198;-59
2024/01/31 03:10:07;;;;;;;12.87;8.27;;;;;;;-3.75;81.34;98749.75;5092751;28;20315;-59
2024/01/31 03:12:34;;;;;;;14.93;7.53;;;;;;;-3.77;80.62;98749.66;5091873;28;20234;-60
2024/01/31 03:15:02;;;;;;;11.03;7.13;;;;;;;-3.82;80.55;98765.50;5091907;28;20192;-59
2024/01/31 03:17:35;;;;;;;12.80;6.60;;;;;;;-3.94;80.82;98745.66;5091809;28;20692;-59
2024/01/31 03:20:05;;;;;;;10.80;6.70;;;;;;;-3.84;80.76;98750.28;5091711;28;20541;-57
2024/01/31 03:22:34;;;;;;;11.43;6.27;;;;;;;-3.85;80.90;98746.00;5092305;28;20198;-59
2024/01/31 03:25:02;;;;;;;14.50;7.03;;;;;;;-3.73;80.52;98743.06;5091245;28;20243;-59
2024/01/31 03:27:35;;;;;;;12.93;7.13;;;;;;;-3.65;80.49;98752.69;5092062;28;20196;-59
2024/01/31 03:30:03;;;;;;;10.97;6.97;;;;;;;-3.86;80.63;98744.28;5091761;28;20709;-58
2024/01/31 03:32:36;;;;;;;11.03;6.93;;;;;;;-3.67;80.34;98748.38;5091295;28;20240;-59
2024/01/31 03:35:04;;;;;;;10.27;6.93;;;;;;;-3.63;79.97;98748.53;5091731;28;20250;-59
2024/01/31 03:37:31;;;;;;;11.47;7.67;;;;;;;-3.83;79.58;98744.38;5091910;28;20285;-60
2024/01/31 03:39:58;;;;;;;12.00;7.20;;;;;;;-3.91;80.04;98745.78;5092246;28;20215;-59
2024/01/31 03:42:26;;;;;;;12.13;7.27;;;;;;;-4.17;80.90;98747.31;5091756;28;20202;-62
2024/01/31 03:44:53;;;;;;;12.23;7.00;;;;;;;-4.19;81.73;98735.41;5092207;28;20203;-62
2024/01/31 03:47:20;;;;;;;10.60;6.27;;;;;;;-4.17;81.21;98743.91;5091537;28;20204;-63
2024/01/31 03:49:47;;;;;;;12.50;7.27;;;;;;;-4.19;81.73;98738.81;5090661;28;20208;-58
2024/01/31 03:52:14;;;;;;;14.97;7.90;;;;;;;-4.13;80.56;98738.19;5088085;28;20194;-61
2024/01/31 03:54:43;;;;;;;15.33;8.67;;;;;;;-4.19;81.46;98737.94;5088309;28;20240;-61
2024/01/31 03:57:10;;;;;;;12.83;7.70;;;;;;;-4.25;81.18;98736.06;5088939;28;20196;-59
2024/01/31 03:59:37;;;;;;;11.57;6.63;;;;;;;-4.30;81.59;98736.66;5088038;28;20650;-61
2024/01/31 04:02:06;;;;;;;13.50;7.83;;;;;;;-4.25;81.91;98733.53;5088387;28;20206;-61
2024/01/31 04:04:33;;;;;;;16.80;8.93;;;;;;;-4.17;82.09;98723.69;5088143;28;20958;-59
2024/01/31 04:07:02;;;;;;;12.43;7.83;;;;;;;-3.95;81.01;98738.88;5088238;28;20201;-61
2024/01/31 04:09:29;;;;;;;15.77;8.60;;;;;;;-4.11;81.35;98728.97;5087950;28;20190;-61
2024/01/31 04:11:56;;;;;;;13.37;8.87;;;;;;;-4.29;81.42;98725.75;5088047;28;20296;-63
2024/01/31 04:14:23;;;;;;;12.77;7.60;;;;;;;-4.37;81.93;98724.59;5088500;28;20218;-60
2024/01/31 04:16:50;;;;;;;14.87;8.67;;;;;;;-4.37;82.45;98722.91;5086091;28;20297;-63
2024/01/31 04:19:18;;;;;;;15.43;9.63;;;;;;;-4.27;82.60;98731.72;5053655;28;20689;-63
2024/01/31 04:21:45;;;;;;;15.43;8.90;;;;;;;-4.30;82.23;98724.00;5088038;28;20258;-64
2024/01/31 04:24:12;;;;;;;17.17;8.90;;;;;;;-4.11;81.99;98723.91;5087654;28;20718;-62
2024/01/31 04:26:44;;;;;;;13.03;8.10;;;;;;;-3.95;81.23;98733.81;5087583;28;20204;-62
2024/01/31 04:29:11;;;;;;;17.77;9.93;;;;;;;-3.91;81.26;98732.25;5087676;28;20217;-60
2024/01/31 04:31:38;;;;;;;18.30;10.10;;;;;;;-4.01;81.00;98731.06;5087771;28;20614;-59
2024/01/31 04:34:05;;;;;;;18.47;9.47;;;;;;;-4.04;81.13;98717.44;5085923;28;20247;-60
2024/01/31 04:36:33;;;;;;;16.57;10.40;;;;;;;-3.81;80.48;98737.72;5069696;28;20280;-62
2024/01/31 04:39:01;;;;;;;17.60;9.60;;;;;;;-3.85;79.33;98733.34;5087242;28;20284;-61
2024/01/31 04:41:28;;;;;;;20.97;10.10;;;;;;;-3.81;79.51;98731.81;5069149;28;20317;-63
2024/01/31 04:43:55;;;;;;;14.30;9.20;;;;;;;-3.79;79.38;98738.63;5087312;28;20672;-60
2024/01/31 04:46:22;;;;;;;14.00;9.13;;;;;;;-3.80;79.18;98736.91;5087513;28;20217;-62
2024/01/31 04:48:49;;;;;;;16.10;10.07;;;;;;;-3.97;78.60;98745.53;5087490;28;20300;-61
2024/01/31 04:51:17;;;;;;;18.60;10.87;;;;;;;-4.10;80.03;98733.22;5086878;28;20195;-61
2024/01/31 04:53:44;;;;;;;17.53;9.37;;;;;;;-4.06;80.40;98740.16;5087377;28;20552;-60
2024/01/31 04:56:11;;;;;;;17.47;9.17;;;;;;;-4.03;78.97;98737.72;5086794;28;20564;-62
2024/01/31 04:58:39;;;;;;;22.63;10.60;;;;;;;-3.95;79.23;98738.88;5068871;28;20205;-60
2024/01/31 05:01:06;;;;;;;21.43;11.70;;;;;;;-4.00;78.58;98731.91;5086421;28;20207;-60
2024/01/31 05:03:34;;;;;;;20.07;10.23;;;;;;;-3.99;79.04;98726.91;5086880;28;20227;-60
2024/01/31 05:06:01;;;;;;;19.07;11.70;;;;;;;-4.13;78.26;98717.94;5087112;28;20206;-60
2024/01/31 05:08:31;;;;;;;19.20;11.77;;;;;;;-4.10;78.29;98730.69;5086454;28;20192;-59
2024/01/31 05:10:58;;;;;;;28.63;17.30;;;;;;;-4.29;78.63;98734.22;5087231;28;20203;-59
2024/01/31 05:13:25;;;;;;;26.77;15.10;;;;;;;-4.58;79.64;98736.38;5086574;28;20245;-60
2024/01/31 05:15:53;;;;;;;22.90;13.13;;;;;;;-4.68;79.27;98747.78;5087085;28;20201;-60
2024/01/31 05:18:20;;;;;;;21.47;12.83;;;;;;;-4.78;80.29;98743.13;5086617;28;20591;-59
2024/01/31 05:20:47;;;;;;;21.27;12.60;;;;;;;-4.81;80.86;98734.56;5086545;28;20255;-59
2024/01/31 05:23:14;;;;;;;20.67;11.03;;;;;;;-4.99;81.42;98740.59;5086467;28;20216;-58
2024/01/31 05:25:41;;;;;;;18.77;10.40;;;;;;;-5.16;81.85;98736.50;5085962;28;20197;-58
2024/01/31 05:28:09;;;;;;;17.60;11.00;;;;;;;-5.09;83.09;98737.66;5086731;28;20243;-59
2024/01/31 05:30:36;;;;;;;21.70;10.77;;;;;;;-5.02;82.91;98743.00;5086071;28;20205;-60
2024/01/31 05:33:03;;;;;;;20.70;12.10;;;;;;;-4.95;83.48;98739.06;5086635;28;20187;-59
2024/01/31 05:35:33;;;;;;;15.80;10.13;;;;;;;-4.87;83.15;98741.91;5086197;28;20210;-58
2024/01/31 05:38:00;;;;;;;15.90;9.40;;;;;;;-4.96;83.91;98737.34;5067967;28;20454;-58
2024/01/31 05:40:27;;;;;;;18.93;8.30;;;;;;;-4.90;83.87;98744.31;5085881;28;20201;-60
2024/01/31 05:42:55;;;;;;;13.57;8.37;;;;;;;-4.78;83.49;98748.19;5085913;28;20195;-59
2024/01/31 05:45:22;;;;;;;16.97;8.40;;;;;;;-4.82;83.23;98737.91;5086437;28;20198;-59
2024/01/31 05:47:49;;;;;;;13.60;9.17;;;;;;;-4.73;83.56;98741.66;5085541;28;20729;-60
2024/01/31 05:50:16;;;;;;;16.13;8.63;;;;;;;-4.77;83.38;98754.09;5068074;28;20205;-60
2024/01/31 05:52:43;;;;;;;14.77;8.40;;;;;;;-4.80;82.94;98748.94;5085462;28;20713;-60
2024/01/31 05:55:14;;;;;;;14.20;7.80;;;;;;;-4.85;83.42;98747.88;5085768;28;20292;-60
2024/01/31 05:57:42;;;;;;;13.07;8.07;;;;;;;-4.82;83.94;98740.44;5085303;28;20608;-60
2024/01/31 06:00:11;;;;;;;13.50;8.00;;;;;;;-4.69;83.52;98745.19;5085427;28;20684;-62
2024/01/31 06:02:40;;;;;;;12.13;7.03;;;;;;;-4.60;83.24;98748.09;5086080;28;20875;-61
2024/01/31 06:05:08;;;;;;;13.93;7.03;;;;;;;-4.55;83.02;98739.88;5085210;28;20277;-60
2024/01/31 06:07:35;;;;;;;14.33;7.43;;;;;;;-4.44;82.18;98746.25;5085637;28;20216;-59
2024/01/31 06:10:03;;;;;;;13.07;6.90;;;;;;;-4.39;81.99;98749.78;5085317;28;20660;-60
2024/01/31 06:12:30;;;;;;;10.17;5.83;;;;;;;-4.36;81.80;98744.00;5085479;28;20199;-58
2024/01/31 06:14:57;;;;;;;13.90;7.70;;;;;;;-4.25;81.98;98747.81;5084846;28;20955;-63
2024/01/31 06:17:24;;;;;;;12.20;6.80;;;;;;;-4.20;81.15;98739.59;5085104;28;20224;-61
2024/01/31 06:19:51;;;;;;;14.73;7.97;;;;;;;-4.09;80.16;98723.97;5085916;28;20363;-60
2024/01/31 06:22:19;;;;;;;14.40;7.77;;;;;;;-3.74;80.24;98749.81;5084885;28;20220;-59
2024/01/31 06:24:46;;;;;;;17.00;7.37;;;;;;;-3.58;78.67;98748.69;5085478;28;20312;-61
2024/01/31 06:27:14;;;;;;;13.83;7.40;;;;;;;-3.62;79.06;98735.06;5085416;28;20221;-61
2024/01/31 06:29:41;;;;;;;10.33;6.57;;;;;;;-3.52;78.62;98747.25;5085106;28;20194;-60
2024/01/31 06:32:09;;;;;;;12.37;6.67;;;;;;;-3.47;78.81;98735.63;5085281;28;20220;-60
2024/01/31 06:34:36;;;;;;;12.77;6.57;;;;;;;-3.14;77.54;98740.13;5066942;28;20327;-62
2024/01/31 06:37:05;;;;;;;12.87;7.40;;;;;;;-2.84;77.51;98749.66;5085358;28;20196;-61
2024/01/31 06:39:32;;;;;;;15.03;8.70;;;;;;;-2.73;76.84;98743.28;5085034;28;20202;-59
2024/01/31 06:42:00;;;;;;;12.93;7.73;;;;;;;-2.43;75.73;98763.66;5050939;28;20195;-59
2024/01/31 06:44:27;;;;;;;15.20;9.27;;;;;;;-2.41;75.22;98751.06;5084842;28;20257;-61
2024/01/31 06:46:54;;;;;;;19.93;9.43;;;;;;;-2.47;74.62;98753.41;5085218;28;20514;-60
2024/01/31 06:49:22;;;;;;;10.83;7.23;;;;;;;-2.56;74.62;98756.50;5050170;28;20199;-60
2024/01/31 06:51:49;;;;;;;13.20;8.13;;;;;;;-2.71;75.15;98764.47;5085326;28;20201;-60
2024/01/31 06:54:18;;;;;;;14.50;9.23;;;;;;;-2.76;75.72;98755.81;5066995;28;20234;-59
2024/01/31 06:56:45;;;;;;;17.10;7.97;;;;;;;-2.79;75.32;98735.47;5084794;28;20559;-61
2024/01/31 06:59:12;;;;;;;15.50;9.80;;;;;;;-2.75;75.38;98732.22;5085314;28;20198;-60
2024/01/31 07:01:39;;;;;;;12.77;7.63;;;;;;;-2.45;75.29;98757.69;5084621;28;20194;-63
2024/01/31 07:04:07;;;;;;;15.10;8.07;;;;;;;-2.41;75.42;98758.69;5085142;28;20771;-61
2024/01/31 07:06:34;;;;;;;16.17;8.80;;;;;;;-2.43;75.68;98745.91;5085032;28;20245;-64
2024/01/31 07:09:01;;;;;;;14.07;7.27;;;;;;;-2.31;75.49;98755.63;5084850;28;20194;-63
2024/01/31 07:11:28;;;;;;;15.83;8.43;;;;;;;-2.72;75.96;98691.75;5085054;28;20218;-62
2024/01/31 07:13:55;;;;;;;17.33;9.53;;;;;;;-2.36;76.22;98758.00;5084287;28;20715;-59
2024/01/31 07:16:22;;;;;;;23.43;11.17;;;;;;;-2.19;76.44;98761.94;5085378;28;20260;-60
2024/01/31 07:18:50;;;;;;;20.33;11.03;;;;;;;-2.06;75.65;98753.88;5084569;28;20200;-61
2024/01/31 07:21:25;;;;;;;17.17;9.70;;;;;;;-1.97;75.15;98759.25;5084915;28;20587;-60
2024/01/31 07:23:52;;;;;;;15.23;8.70;;;;;;;-1.94;75.11;98759.31;5084448;28;20288;-61
2024/01/31 07:26:24;;;;;;;19.10;12.27;;;;;;;-2.35;75.83;98627.84;5087016;28;20694;-59
2024/01/31 07:28:54;;;;;;;19.40;11.63;;;;;;;-1.36;74.64;98741.56;5088910;28;20220;-60
2024/01/31 07:31:21;;;;;;;16.13;9.10;;;;;;;-1.44;73.18;98720.16;5088382;28;20238;-62
2024/01/31 07:33:49;;;;;;;18.60;10.27;;;;;;;-1.39;72.70;98725.38;5089246;28;20256;-64
2024/01/31 07:36:16;;;;;;;15.07;9.77;;;;;;;-1.01;71.71;98747.63;5088724;28;20184;-59
2024/01/31 07:38:44;;;;;;;17.37;10.50;;;;;;;-0.98;72.30;98740.06;5088849;28;20223;-62
2024/01/31 07:41:12;;;;;;;17.70;9.77;;;;;;;-0.82;71.84;98739.66;5088160;28;20193;-61
2024/01/31 07:43:39;;;;;;;16.57;9.87;;;;;;;-0.71;71.15;98735.72;5088293;28;20189;-60
2024/01/31 07:46:10;;;;;;;14.50;9.13;;;;;;;-0.82;70.57;98701.50;5088276;28;20236;-59
2024/01/31 07:48:37;;;;;;;13.97;7.63;;;;;;;-0.50;68.90;98740.47;5088231;28;20204;-60
2024/01/31 07:51:05;;;;;;;16.23;8.90;;;;;;;-0.61;70.06;98722.41;5088506;28;20196;-61
2024/01/31 07:53:33;;;;;;;15.87;8.17;;;;;;;-0.33;69.26;98734.13;5069490;28;20215;-62
2024/01/31 07:56:00;;;;;;;17.90;8.60;;;;;;;-0.15;69.16;98726.91;5088488;28;20203;-59
2024/01/31 07:58:31;;;;;;;16.57;8.93;;;;;;;-0.05;69.98;98737.34;5087862;28;20200;-62
2024/01/31 08:00:59;;;;;;;14.50;8.07;;;;;;;0.03;68.16;98729.84;5087924;28;20768;-61
2024/01/31 08:03:26;;;;;;;18.97;10.17;;;;;;;0.11;67.46;98732.56;5087765;28;20398;-61
2024/01/31 08:05:54;;;;;;;17.43;9.47;;;;;;;0.13;67.32;98721.59;5087541;28;20196;-60
2024/01/31 08:08:21;;;;;;;16.97;9.63;;;;;;;0.41;65.81;98734.09;5087922;28;20191;-61
2024/01/31 08:10:48;;;;;;;13.43;8.33;;;;;;;0.37;66.94;98729.75;5087332;28;20333;-60
2024/01/31 08:13:16;;;;;;;18.13;10.63;;;;;;;0.48;66.03;98728.28;5088547;28;20197;-63
2024/01/31 08:15:43;;;;;;;14.97;8.60;;;;;;;0.55;65.02;98731.84;5087849;28;20235;-63
2024/01/31 08:18:10;;;;;;;29.53;17.00;;;;;;;0.46;64.52;98695.97;5087582;28;20301;-62
2024/01/31 08:20:37;;;;;;;24.43;13.77;;;;;;;0.72;65.94;98725.41;5068957;28;20197;-60
2024/01/31 08:23:05;;;;;;;22.40;12.23;;;;;;;0.87;65.06;98740.13;5068923;28;20295;-60
2024/01/31 08:25:32;;;;;;;25.83;13.77;;;;;;;1.08;64.47;98726.09;5087440;28;20200;-62
2024/01/31 08:28:01;;;;;;;28.57;12.87;;;;;;;1.10;62.84;98729.53;5086296;28;20205;-61
2024/01/31 08:30:28;;;;;;;17.83;11.87;;;;;;;1.02;62.29;98720.00;5087784;28;20193;-62
2024/01/31 08:32:55;;;;;;;18.07;12.10;;;;;;;0.97;62.81;98729.28;5087305;28;20223;-60
2024/01/31 08:35:22;;;;;;;21.77;13.27;;;;;;;1.05;64.65;98723.47;5087268;28;20700;-60
2024/01/31 08:37:50;;;;;;;22.50;11.73;;;;;;;1.15;63.79;98720.28;5086488;28;20465;-62
2024/01/31 08:40:17;;;;;;;17.57;11.20;;;;;;;1.25;62.70;98719.59;5068435;28;20295;-60
2024/01/31 08:42:48;;;;;;;16.43;11.00;;;;;;;1.24;64.38;98712.75;5087096;28;20212;-60
2024/01/31 08:45:15;;;;;;;20.93;11.27;;;;;;;1.45;63.85;98708.03;5086744;28;20196;-63
2024/01/31 08:47:42;;;;;;;19.63;11.57;;;;;;;1.54;63.50;98707.31;5068601;28;20204;-60
2024/01/31 08:50:10;;;;;;;17.73;10.27;;;;;;;1.75;62.21;98707.69;5086154;28;20217;-60
2024/01/31 08:52:37;;;;;;;16.63;9.90;;;;;;;1.74;61.21;98711.03;5068462;28;20216;-61
2024/01/31 08:55:08;;;;;;;16.83;9.97;;;;;;;1.65;61.02;98699.00;5086755;28;20227;-59
2024/01/31 08:57:36;;;;;;;15.10;9.77;;;;;;;1.88;60.60;98701.91;5086853;28;20188;-60
2024/01/31 09:00:06;;;;;;;19.17;10.50;;;;;;;2.03;61.32;98696.16;5086510;28;20211;-60
2024/01/31 09:02:33;;;;;;;28.87;10.80;;;;;;;2.16;60.40;98688.69;5086507;28;20189;-58
2024/01/31 09:05:01;;;;;;;18.03;10.13;;;;;;;2.23;59.74;98703.25;5087165;28;20207;-58
2024/01/31 09:07:30;;;;;;;15.57;9.07;;;;;;;2.25;58.89;98681.13;5086520;28;20642;-61
2024/01/31 09:09:57;;;;;;;11.03;8.27;;;;;;;2.34;59.08;98686.38;5086721;28;20196;-59
2024/01/31 09:12:24;;;;;;;14.90;9.90;;;;;;;2.38;58.64;98692.38;5086152;28;20195;-60
2024/01/31 09:14:51;;;;;;;14.13;9.27;;;;;;;2.54;58.88;98686.59;5086618;28;20681;-59
2024/01/31 09:17:18;;;;;;;15.77;8.87;;;;;;;2.63;57.88;98686.72;5086365;28;20385;-60
2024/01/31 09:19:45;;;;;;;14.17;9.07;;;;;;;2.64;59.04;98669.69;5086438;28;20671;-59
2024/01/31 09:22:14;;;;;;;12.70;8.23;;;;;;;2.88;57.40;98673.38;5087055;28;20203;-59
2024/01/31 09:24:41;;;;;;;15.37;8.73;;;;;;;2.00;57.79;98622.03;5085793;28;20308;-62
2024/01/31 09:27:09;;;;;;;13.83;8.07;;;;;;;2.40;57.59;98673.66;5086898;28;20568;-61
2024/01/31 09:29:36;;;;;;;17.67;9.17;;;;;;;2.84;56.93;98661.41;5086248;28;20600;-59
2024/01/31 09:32:04;;;;;;;10.40;8.30;;;;;;;2.96;56.96;98665.78;5086118;28;20201;-61
2024/01/31 09:34:31;;;;;;;15.23;8.17;;;;;;;3.09;56.80;98650.53;5086418;28;20239;-60
2024/01/31 09:36:59;;;;;;;13.07;7.77;;;;;;;2.94;56.82;98637.63;5085781;28;20898;-60
2024/01/31 09:39:26;;;;;;;14.60;7.67;;;;;;;3.25;55.40;98652.41;5086206;28;20214;-60
2024/01/31 09:41:53;;;;;;;19.40;8.00;;;;;;;3.03;54.46;98575.44;5067568;28;20257;-60
2024/01/31 09:44:21;;;;;;;16.13;8.33;;;;;;;3.39;54.40;98633.72;5067979;28;20224;-61
2024/01/31 09:46:51;;;;;;;12.70;7.57;;;;;;;3.58;53.28;98633.03;5067216;28;20330;-61
2024/01/31 09:49:19;;;;;;;15.67;7.10;;;;;;;3.66;52.67;98631.38;5084827;28;20201;-60
2024/01/31 09:51:46;;;;;;;14.27;7.67;;;;;;;3.64;51.97;98613.44;5085727;28;20200;-60
2024/01/31 09:54:14;;;;;;;18.27;8.17;;;;;;;3.97;52.15;98616.22;5085407;28;20189;-61
2024/01/31 09:56:41;;;;;;;11.33;6.87;;;;;;;3.86;52.43;98611.84;5085701;28;20185;-60
2024/01/31 09:59:09;;;;;;;13.13;7.20;;;;;;;3.92;52.81;98610.19;5085124;28;20213;-60
2024/01/31 10:01:37;;;;;;;8.20;5.67;;;;;;;4.02;50.97;98611.94;5067328;28;20265;-60
2024/01/31 10:04:04;;;;;;;13.10;6.70;;;;;;;4.00;51.81;98600.84;5084867;28;20197;-60
2024/01/31 10:06:32;;;;;;;10.63;5.37;;;;;;;4.18;51.12;98605.22;5085353;28;20203;-60
2024/01/31 10:08:59;;;;;;;11.30;4.73;;;;;;;4.37;49.26;98608.72;5085569;28;20290;-59
2024/01/31 10:11:30;;;;;;;7.23;4.80;;;;;;;4.39;48.59;98602.72;5085635;28;20666;-60
2024/01/31 10:13:57;;;;;;;8.33;5.00;;;;;;;4.25;49.38;98585.56;5067573;28;20229;-61
2024/01/31 10:16:24;;;;;;;11.93;4.63;;;;;;;4.09;48.90;98539.38;5049837;28;20313;-60
2024/01/31 10:18:52;;;;;;;11.70;7.10;;;;;;;4.38;49.25;98589.88;5066841;28;20199;-61
2024/01/31 10:21:19;;;;;;;7.77;4.97;;;;;;;4.54;49.23;98592.50;5084808;28;20216;-60
2024/01/31 10:24:02;;;;;;;9.50;4.27;;;;;;;4.53;49.04;98582.25;5084554;28;20281;-63
2024/01/31 10:26:30;;;;;;;6.80;3.47;;;;;;;4.63;48.48;98573.72;5084722;28;20585;-59
2024/01/31 10:28:58;;;;;;;7.60;4.17;;;;;;;4.86;47.43;98579.75;5084743;28;20194;-61
2024/01/31 10:31:37;;;;;;;8.67;4.37;;;;;;;4.99;46.76;98588.31;5085336;28;20190;-60
2024/01/31 10:34:07;;;;;;;5.10;3.27;;;;;;;4.80;47.24;98556.66;5084587;28;20199;-63
2024/01/31 10:36:36;;;;;;;4.73;3.27;;;;;;;4.71;46.72;98529.28;5084782;28;20271;-63
2024/01/31 10:39:09;;;;;;;4.00;3.27;;;;;;;5.10;45.66;98571.19;5085048;28;20201;-62
2024/01/31 10:41:40;;;;;;;5.33;3.20;;;;;;;5.18;44.64;98561.78;5084944;28;20186;-61
2024/01/31 10:44:13;;;;;;;7.23;3.23;;;;;;;4.89;44.36;98510.44;5085191;28;20327;-61
2024/01/31 10:46:42;;;;;;;6.90;4.40;;;;;;;5.16;46.43;98560.94;5084834;28;20286;-62
2024/01/31 10:49:11;;;;;;;5.60;3.97;;;;;;;5.30;45.18;98556.63;5085282;28;20190;-62
2024/01/31 10:51:40;;;;;;;5.07;3.17;;;;;;;5.34;44.34;98560.91;5084718;28;20199;-63
2024/01/31 10:54:08;;;;;;;7.97;4.17;;;;;;;5.49;45.54;98555.78;5066949;28;20662;-60
2024/01/31 10:56:37;;;;;;;8.50;4.17;;;;;;;5.42;45.81;98538.66;5084760;28;20753;-62
2024/01/31 10:59:06;;;;;;;8.17;4.57;;;;;;;5.51;47.46;98548.91;5084351;28;20904;-60
2024/01/31 11:01:33;;;;;;;9.00;5.53;;;;;;;5.57;47.69;98549.75;5089003;28;20200;-61
2024/01/31 11:04:04;;;;;;;10.30;5.10;;;;;;;5.73;46.00;98546.28;5088622;28;20202;-60
2024/01/31 11:06:41;;;;;;;6.73;4.27;;;;;;;5.46;43.98;98532.66;5071212;28;20194;-61
2024/01/31 11:09:18;;;;;;;6.67;4.00;;;;;;;5.59;44.09;98542.03;5088597;28;20697;-60
2024/01/31 11:11:45;;;;;;;6.33;3.27;;;;;;;5.54;43.35;98534.34;5070109;28;20191;-60
2024/01/31 11:14:14;;;;;;;5.37;3.60;;;;;;;5.61;42.80;98528.34;5070457;28;20192;-60
2024/01/31 11:16:42;;;;;;;6.73;3.87;;;;;;;5.53;43.64;98527.50;5088206;28;20244;-61
2024/01/31 11:19:18;;;;;;;6.23;4.50;;;;;;;5.70;43.27;98517.19;5089158;28;20714;-61
2024/01/31 11:21:45;;;;;;;10.13;4.60;;;;;;;5.79;44.76;98524.84;5070070;28;20579;-61
2024/01/31 11:24:14;;;;;;;8.30;4.27;;;;;;;5.91;45.07;98521.44;5070047;28;20228;-63
2024/01/31 11:26:41;;;;;;;6.63;4.20;;;;;;;6.12;44.23;98518.78;5069830;28;20194;-62
2024/01/31 11:29:09;;;;;;;8.27;4.87;;;;;;;6.15;43.56;98509.31;5088463;28;20203;-61